createdAt,value
2017-09-26T00:00:17.107Z,2.1
2017-09-26T00:01:19.506Z,2.1
2017-09-26T00:02:22.230Z,2.1
2017-09-26T00:03:24.620Z,2.1
2017-09-26T00:04:27.027Z,2.1
2017-09-26T00:05:29.419Z,2.1
2017-09-26T00:06:31.822Z,2
2017-09-26T00:07:34.218Z,2.2
2017-09-26T00:08:36.610Z,2
2017-09-26T00:09:39.011Z,2.1
2017-09-26T00:10:41.409Z,2.1
2017-09-26T00:11:43.804Z,2.1
2017-09-26T00:12:46.200Z,2.1
2017-09-26T00:13:48.927Z,2.1
2017-09-26T00:14:51.318Z,2.2
2017-09-26T00:15:53.721Z,2
2017-09-26T00:16:56.107Z,1.8
2017-09-26T00:17:58.504Z,2.1
2017-09-26T00:19:00.900Z,2
2017-09-26T00:20:03.291Z,2.1
2017-09-26T00:21:05.696Z,2.1
2017-09-26T00:22:08.100Z,2
2017-09-26T00:23:10.506Z,1.9
2017-09-26T00:24:12.910Z,2
2017-09-26T00:25:15.314Z,2.1
2017-09-26T00:26:17.723Z,1.9
2017-09-26T00:27:20.460Z,2.1
2017-09-26T00:28:22.870Z,2.1
2017-09-26T00:29:25.273Z,2
2017-09-26T00:30:27.682Z,2.1
2017-09-26T00:31:30.088Z,1.9
2017-09-26T00:32:32.489Z,1.9
2017-09-26T00:33:34.893Z,2.1
2017-09-26T00:34:37.302Z,2.1
2017-09-26T00:35:40.060Z,2.1
2017-09-26T00:36:42.461Z,2.1
2017-09-26T00:37:45.214Z,2.1
2017-09-26T00:38:47.621Z,2
2017-09-26T00:39:50.021Z,2.1
2017-09-26T00:40:52.427Z,2
2017-09-26T00:41:54.823Z,2
2017-09-26T00:42:57.216Z,2
2017-09-26T00:43:59.612Z,2.1
2017-09-26T00:45:02.344Z,2.1
2017-09-26T00:46:04.738Z,2
2017-09-26T00:47:07.138Z,2.1
2017-09-26T00:48:09.540Z,2.1
2017-09-26T00:49:11.936Z,2
2017-09-26T00:50:14.341Z,2.1
2017-09-26T00:51:16.732Z,2.1
2017-09-26T00:52:19.137Z,2.1
2017-09-26T00:53:21.536Z,2.1
2017-09-26T00:54:23.934Z,2
2017-09-26T00:55:26.331Z,2.1
2017-09-26T00:56:28.722Z,2.1
2017-09-26T00:57:31.115Z,2
2017-09-26T00:58:33.515Z,2.2
2017-09-26T00:59:35.909Z,2.1
2017-09-26T01:00:38.300Z,2.1
2017-09-26T01:01:40.698Z,2.1
2017-09-26T01:02:43.103Z,2.1
2017-09-26T01:03:45.838Z,2
2017-09-26T01:04:48.236Z,2.1
2017-09-26T01:05:50.663Z,2
2017-09-26T01:06:53.373Z,2.1
2017-09-26T01:07:55.763Z,2.1
2017-09-26T01:08:58.163Z,2.1
2017-09-26T01:10:00.560Z,2.1
2017-09-26T01:11:02.957Z,2.1
2017-09-26T01:12:05.351Z,2.1
2017-09-26T01:13:07.742Z,2.1
2017-09-26T01:14:10.136Z,2.1
2017-09-26T01:15:12.875Z,2
2017-09-26T01:16:15.266Z,2.1
2017-09-26T01:17:17.661Z,2.1
2017-09-26T01:18:20.395Z,2.1
2017-09-26T01:19:22.793Z,2.2
2017-09-26T01:20:25.527Z,2.1
2017-09-26T01:21:27.929Z,2.2
2017-09-26T01:22:30.323Z,2
2017-09-26T01:23:32.718Z,2.1
2017-09-26T01:24:35.120Z,2.1
2017-09-26T01:25:37.514Z,2.1
2017-09-26T01:26:40.265Z,2.1
2017-09-26T01:27:43.357Z,2.1
2017-09-26T01:28:45.754Z,2.1
2017-09-26T01:29:48.149Z,2.1
2017-09-26T01:30:50.554Z,2.2
2017-09-26T01:31:53.304Z,1.9
2017-09-26T01:32:55.699Z,2.2
2017-09-26T01:33:58.098Z,2.1
2017-09-26T01:35:00.486Z,2
2017-09-26T01:36:02.882Z,2.1
2017-09-26T01:37:05.621Z,2.1
2017-09-26T01:38:08.017Z,1.9
2017-09-26T01:39:10.747Z,2
2017-09-26T01:40:13.143Z,2.1
2017-09-26T01:41:15.557Z,2.1
2017-09-26T01:42:17.956Z,2.1
2017-09-26T01:43:20.353Z,2.1
2017-09-26T01:44:22.752Z,2
2017-09-26T01:45:25.491Z,2
2017-09-26T01:46:27.896Z,2.1
2017-09-26T01:47:30.291Z,2.2
2017-09-26T01:48:33.021Z,2.1
2017-09-26T01:49:35.424Z,2.1
2017-09-26T01:50:37.811Z,2
2017-09-26T01:51:40.213Z,2.2
2017-09-26T01:52:42.612Z,2.1
2017-09-26T01:53:45.005Z,2.1
2017-09-26T01:54:47.396Z,2.2
2017-09-26T01:55:49.795Z,2.1
2017-09-26T01:56:52.533Z,2.2
2017-09-26T01:57:55.275Z,2
2017-09-26T01:58:58.034Z,2.1
2017-09-26T02:00:00.430Z,2.2
2017-09-26T02:01:02.830Z,2.1
2017-09-26T02:02:05.581Z,2.1
2017-09-26T02:03:07.974Z,2
2017-09-26T02:04:10.372Z,2.1
2017-09-26T02:05:12.767Z,2
2017-09-26T02:06:15.165Z,2.2
2017-09-26T02:07:17.560Z,2.2
2017-09-26T02:08:19.956Z,2.2
2017-09-26T02:09:22.357Z,2.1
2017-09-26T02:10:24.751Z,2.2
2017-09-26T02:11:27.487Z,2.2
2017-09-26T02:12:30.229Z,2.2
2017-09-26T02:13:32.621Z,2.2
2017-09-26T02:14:35.027Z,2.2
2017-09-26T02:15:37.421Z,2.2
2017-09-26T02:16:39.813Z,2.1
2017-09-26T02:17:42.209Z,2.2
2017-09-26T02:18:44.607Z,2.2
2017-09-26T02:19:47.008Z,2
2017-09-26T02:20:49.405Z,2.1
2017-09-26T02:21:51.791Z,2.2
2017-09-26T02:22:54.192Z,2.2
2017-09-26T02:23:56.948Z,2.2
2017-09-26T02:24:59.686Z,2.2
2017-09-26T02:26:02.422Z,2
2017-09-26T02:27:04.818Z,2.1
2017-09-26T02:28:07.213Z,2
2017-09-26T02:29:09.615Z,2.2
2017-09-26T02:30:12.008Z,2
2017-09-26T02:31:14.401Z,2.2
2017-09-26T02:32:17.132Z,2.2
2017-09-26T02:33:19.529Z,2.2
2017-09-26T02:34:21.925Z,2.1
2017-09-26T02:35:24.322Z,2.2
2017-09-26T02:36:26.723Z,2.2
2017-09-26T02:37:29.125Z,2.2
2017-09-26T02:38:31.517Z,2.2
2017-09-26T02:39:34.249Z,2.2
2017-09-26T02:40:36.990Z,2
2017-09-26T02:41:39.380Z,2
2017-09-26T02:42:41.776Z,2.1
2017-09-26T02:43:44.172Z,2.2
2017-09-26T02:44:46.565Z,2.1
2017-09-26T02:45:49.302Z,2.1
2017-09-26T02:46:51.707Z,2.2
2017-09-26T02:47:54.090Z,2.1
2017-09-26T02:48:56.493Z,2.2
2017-09-26T02:49:58.886Z,2.1
2017-09-26T02:51:01.281Z,2.1
2017-09-26T02:52:03.683Z,2.1
2017-09-26T02:53:06.425Z,2.2
2017-09-26T02:54:08.820Z,1.9
2017-09-26T02:55:11.223Z,2.2
2017-09-26T02:56:13.614Z,2.2
2017-09-26T02:57:16.011Z,2.2
2017-09-26T02:58:18.783Z,2.2
2017-09-26T02:59:21.177Z,2
2017-09-26T03:00:23.576Z,2.1
2017-09-26T03:01:26.317Z,2.2
2017-09-26T03:02:28.704Z,2.2
2017-09-26T03:03:31.096Z,2.1
2017-09-26T03:04:33.500Z,2.2
2017-09-26T03:05:35.896Z,2.2
2017-09-26T03:06:38.286Z,2.1
2017-09-26T03:07:40.693Z,2.2
2017-09-26T03:08:43.089Z,2.2
2017-09-26T03:09:45.480Z,2.1
2017-09-26T03:10:47.881Z,1.9
2017-09-26T03:11:50.273Z,2.2
2017-09-26T03:12:53.372Z,2.1
2017-09-26T03:13:55.773Z,2.1
2017-09-26T03:14:58.168Z,2.2
2017-09-26T03:16:00.561Z,2
2017-09-26T03:17:03.295Z,2.1
2017-09-26T03:18:05.692Z,2.2
2017-09-26T03:19:08.096Z,2.2
2017-09-26T03:20:10.487Z,2.2
2017-09-26T03:21:12.880Z,1.9
2017-09-26T03:22:15.279Z,2.2
2017-09-26T03:23:17.674Z,2.1
2017-09-26T03:24:20.071Z,2.2
2017-09-26T03:25:22.809Z,2.1
2017-09-26T03:26:25.200Z,2
2017-09-26T03:27:27.598Z,2
2017-09-26T03:28:30.336Z,2.2
2017-09-26T03:29:32.725Z,2.1
2017-09-26T03:30:35.117Z,2.1
2017-09-26T03:31:37.515Z,2
2017-09-26T03:32:39.921Z,2.1
2017-09-26T03:33:42.315Z,2.1
2017-09-26T03:34:44.713Z,1.9
2017-09-26T03:35:47.113Z,2.1
2017-09-26T03:36:49.511Z,2
2017-09-26T03:37:51.903Z,2.1
2017-09-26T03:38:54.302Z,1.9
2017-09-26T03:39:56.698Z,2
2017-09-26T03:40:59.097Z,2.1
2017-09-26T03:42:01.848Z,2.2
2017-09-26T03:43:04.242Z,2.2
2017-09-26T03:44:06.634Z,2.2
2017-09-26T03:45:09.030Z,2.1
2017-09-26T03:46:11.421Z,2.2
2017-09-26T03:47:13.814Z,2.2
2017-09-26T03:48:16.208Z,2.2
2017-09-26T03:49:18.604Z,2.2
2017-09-26T03:50:21.008Z,2.2
2017-09-26T03:51:23.409Z,2.2
2017-09-26T03:52:25.795Z,2.2
2017-09-26T03:53:28.539Z,2.2
2017-09-26T03:54:30.935Z,2.1
2017-09-26T03:55:33.328Z,2.2
2017-09-26T03:56:35.725Z,2.2
2017-09-26T03:57:38.119Z,2.1
2017-09-26T03:58:40.852Z,2.2
2017-09-26T03:59:43.252Z,2.2
2017-09-26T04:00:45.639Z,2.1
2017-09-26T04:01:48.033Z,2.2
2017-09-26T04:02:50.432Z,2
2017-09-26T04:03:52.819Z,2.2
2017-09-26T04:04:55.217Z,2.1
2017-09-26T04:05:57.957Z,2.1
2017-09-26T04:07:00.351Z,1.9
2017-09-26T04:08:02.744Z,1.9
2017-09-26T04:09:05.146Z,2.1
2017-09-26T04:10:07.536Z,2.1
2017-09-26T04:11:09.938Z,2.1
2017-09-26T04:12:12.327Z,2.1
2017-09-26T04:13:14.720Z,2.1
2017-09-26T04:14:17.116Z,2
2017-09-26T04:15:19.852Z,2.1
2017-09-26T04:16:22.585Z,2.1
2017-09-26T04:17:24.987Z,2
2017-09-26T04:18:27.424Z,1.9
2017-09-26T04:19:30.183Z,2.1
2017-09-26T04:20:32.582Z,2.2
2017-09-26T04:21:34.976Z,2.1
2017-09-26T04:22:38.069Z,2.2
2017-09-26T04:23:40.469Z,1.9
2017-09-26T04:24:42.856Z,1.9
2017-09-26T04:25:45.252Z,2.1
2017-09-26T04:26:47.976Z,2.2
2017-09-26T04:27:50.370Z,2.1
2017-09-26T04:28:52.764Z,2.1
2017-09-26T04:29:55.158Z,2.1
2017-09-26T04:30:57.894Z,2.1
2017-09-26T04:32:00.290Z,2.2
2017-09-26T04:33:02.681Z,2
2017-09-26T04:34:05.082Z,2.1
2017-09-26T04:35:07.471Z,2.1
2017-09-26T04:36:09.863Z,2.2
2017-09-26T04:37:12.270Z,2.2
2017-09-26T04:38:15.002Z,2.2
2017-09-26T04:39:17.398Z,2.2
2017-09-26T04:40:19.794Z,2.1
2017-09-26T04:41:22.189Z,2.2
2017-09-26T04:42:24.589Z,2.1
2017-09-26T04:43:26.993Z,2
2017-09-26T04:44:29.380Z,2.2
2017-09-26T04:45:31.777Z,2.2
2017-09-26T04:46:34.176Z,2.1
2017-09-26T04:47:36.569Z,2.2
2017-09-26T04:48:38.971Z,1.9
2017-09-26T04:49:41.364Z,2.1
2017-09-26T04:50:43.760Z,2
2017-09-26T04:51:46.159Z,2.1
2017-09-26T04:52:48.552Z,2.2
2017-09-26T04:53:50.946Z,2.2
2017-09-26T04:54:53.341Z,2.2
2017-09-26T04:55:55.738Z,2.1
2017-09-26T04:56:58.138Z,2.2
2017-09-26T04:58:00.542Z,2.2
2017-09-26T04:59:02.929Z,2.2
2017-09-26T05:00:05.327Z,2.1
2017-09-26T05:01:07.728Z,2.2
2017-09-26T05:02:10.463Z,2.2
2017-09-26T05:03:12.857Z,2.2
2017-09-26T05:04:15.252Z,2.2
2017-09-26T05:05:17.647Z,2.2
2017-09-26T05:06:20.044Z,2.1
2017-09-26T05:07:22.441Z,2
2017-09-26T05:08:24.834Z,2.1
2017-09-26T05:09:27.229Z,2
2017-09-26T05:10:29.973Z,2.2
2017-09-26T05:11:32.367Z,2.2
2017-09-26T05:12:34.759Z,2.1
2017-09-26T05:13:37.150Z,2.1
2017-09-26T05:14:39.545Z,2.2
2017-09-26T05:15:41.938Z,2.2
2017-09-26T05:16:44.340Z,2.1
2017-09-26T05:17:46.731Z,2.2
2017-09-26T05:18:49.127Z,2.1
2017-09-26T05:19:51.520Z,2.1
2017-09-26T05:20:53.916Z,2.2
2017-09-26T05:21:56.311Z,2
2017-09-26T05:22:58.702Z,2.2
2017-09-26T05:24:01.095Z,2.1
2017-09-26T05:25:03.839Z,2.1
2017-09-26T05:26:06.229Z,2.2
2017-09-26T05:27:08.626Z,2.1
2017-09-26T05:28:11.028Z,2.1
2017-09-26T05:29:14.116Z,2.2
2017-09-26T05:30:16.515Z,2.1
2017-09-26T05:31:18.911Z,2.1
2017-09-26T05:32:21.311Z,2.2
2017-09-26T05:33:24.048Z,2.1
2017-09-26T05:34:26.457Z,2.2
2017-09-26T05:35:28.859Z,2.2
2017-09-26T05:36:31.253Z,2
2017-09-26T05:37:34.000Z,2.2
2017-09-26T05:38:36.393Z,2.2
2017-09-26T05:39:38.788Z,2.2
2017-09-26T05:40:41.177Z,2.1
2017-09-26T05:41:43.579Z,2
2017-09-26T05:42:45.967Z,2.1
2017-09-26T05:43:48.714Z,2.2
2017-09-26T05:44:51.450Z,2.2
2017-09-26T05:45:53.844Z,2.1
2017-09-26T05:46:56.586Z,2.2
2017-09-26T05:47:59.322Z,2.2
2017-09-26T05:49:01.710Z,2.2
2017-09-26T05:50:04.104Z,2.1
2017-09-26T05:51:06.498Z,2
2017-09-26T05:52:08.893Z,2.2
2017-09-26T05:53:11.291Z,2.1
2017-09-26T05:54:13.685Z,2.1
2017-09-26T05:55:16.075Z,2.2
2017-09-26T05:56:18.482Z,2.1
2017-09-26T05:57:20.880Z,2.2
2017-09-26T05:58:23.630Z,2.2
2017-09-26T05:59:26.370Z,2.2
2017-09-26T06:00:28.764Z,2.2
2017-09-26T06:01:31.152Z,2.2
2017-09-26T06:02:33.544Z,2.2
2017-09-26T06:03:35.943Z,2.2
2017-09-26T06:04:38.337Z,2.2
2017-09-26T06:05:40.740Z,2.1
2017-09-26T06:06:43.137Z,2.1
2017-09-26T06:07:45.528Z,2.1
2017-09-26T06:08:48.268Z,2.1
2017-09-26T06:09:50.667Z,2.2
2017-09-26T06:10:53.410Z,2.2
2017-09-26T06:11:55.948Z,2.1
2017-09-26T06:12:58.338Z,2
2017-09-26T06:14:00.733Z,2.1
2017-09-26T06:15:03.157Z,2.2
2017-09-26T06:16:05.546Z,2.2
2017-09-26T06:17:07.947Z,2.2
2017-09-26T06:18:10.339Z,2.1
2017-09-26T06:19:12.735Z,2.2
2017-09-26T06:20:15.467Z,2.2
2017-09-26T06:21:17.867Z,2.1
2017-09-26T06:22:20.261Z,2.1
2017-09-26T06:23:23.340Z,2.2
2017-09-26T06:24:25.733Z,2.2
2017-09-26T06:25:28.129Z,2.1
2017-09-26T06:26:30.529Z,2.1
2017-09-26T06:27:32.924Z,2.2
2017-09-26T06:28:35.329Z,2.2
2017-09-26T06:29:37.730Z,2.2
2017-09-26T06:30:40.123Z,2.1
2017-09-26T06:31:42.859Z,2.2
2017-09-26T06:32:45.254Z,2.2
2017-09-26T06:33:47.655Z,2.2
2017-09-26T06:34:50.080Z,2.2
2017-09-26T06:35:52.469Z,2.2
2017-09-26T06:36:55.491Z,2.3
2017-09-26T06:37:58.297Z,2.2
2017-09-26T06:39:01.038Z,2.2
2017-09-26T06:40:03.432Z,2.1
2017-09-26T06:41:05.827Z,2.1
2017-09-26T06:42:08.228Z,2.2
2017-09-26T06:43:10.962Z,2.2
2017-09-26T06:44:13.354Z,2.2
2017-09-26T06:45:15.755Z,2.3
2017-09-26T06:46:18.153Z,2.2
2017-09-26T06:47:20.554Z,2
2017-09-26T06:48:22.962Z,2.1
2017-09-26T06:49:25.359Z,2.2
2017-09-26T06:50:27.748Z,2.3
2017-09-26T06:51:30.151Z,2.1
2017-09-26T06:52:32.547Z,2.2
2017-09-26T06:53:34.943Z,2.2
2017-09-26T06:54:37.344Z,2.3
2017-09-26T06:55:39.730Z,2.3
2017-09-26T06:56:42.127Z,2.1
2017-09-26T06:57:44.533Z,2.3
2017-09-26T06:58:46.928Z,2.2
2017-09-26T06:59:49.321Z,2.1
2017-09-26T07:00:51.719Z,2.3
2017-09-26T07:01:54.794Z,2.2
2017-09-26T07:02:57.196Z,2.3
2017-09-26T07:03:59.590Z,2.3
2017-09-26T07:05:01.988Z,2.1
2017-09-26T07:06:04.382Z,2.2
2017-09-26T07:07:06.769Z,2.1
2017-09-26T07:08:09.168Z,2.3
2017-09-26T07:09:11.564Z,2.3
2017-09-26T07:10:14.304Z,2.3
2017-09-26T07:11:17.048Z,2.3
2017-09-26T07:12:19.773Z,2.2
2017-09-26T07:13:22.192Z,2.3
2017-09-26T07:14:24.588Z,2.2
2017-09-26T07:15:26.980Z,2.3
2017-09-26T07:16:29.431Z,2.2
2017-09-26T07:17:31.854Z,2.3
2017-09-26T07:18:34.272Z,2.2
2017-09-26T07:19:36.673Z,2.2
2017-09-26T07:20:39.067Z,2.2
2017-09-26T07:21:41.479Z,2.3
2017-09-26T07:22:43.939Z,2.4
2017-09-26T07:23:46.545Z,2.2
2017-09-26T07:24:49.345Z,2.2
2017-09-26T07:25:51.792Z,2.3
2017-09-26T07:26:54.537Z,2.2
2017-09-26T07:27:57.006Z,2.3
2017-09-26T07:28:59.407Z,2.3
2017-09-26T07:30:01.798Z,2.2
2017-09-26T07:31:04.249Z,2.4
2017-09-26T07:32:06.656Z,2.2
2017-09-26T07:33:09.152Z,2.2
2017-09-26T07:34:11.565Z,2.2
2017-09-26T07:35:13.972Z,2.2
2017-09-26T07:36:16.436Z,2.3
2017-09-26T07:37:19.173Z,2.1
2017-09-26T07:38:21.591Z,2.4
2017-09-26T07:39:24.039Z,2.1
2017-09-26T07:40:26.445Z,2.3
2017-09-26T07:41:28.952Z,2.3
2017-09-26T07:42:31.349Z,2.2
2017-09-26T07:43:34.092Z,2.1
2017-09-26T07:44:36.940Z,2.2
2017-09-26T07:45:39.344Z,2.4
2017-09-26T07:46:41.734Z,2.4
2017-09-26T07:47:44.198Z,2.3
2017-09-26T07:48:46.592Z,2.3
2017-09-26T07:49:49.028Z,2.3
2017-09-26T07:50:51.423Z,2.4
2017-09-26T07:51:53.824Z,2.3
2017-09-26T07:52:56.266Z,2.3
2017-09-26T07:53:58.667Z,2.3
2017-09-26T07:55:01.094Z,2.3
2017-09-26T07:56:03.497Z,2.4
2017-09-26T07:57:06.227Z,2.3
2017-09-26T07:58:08.664Z,2.3
2017-09-26T07:59:11.063Z,2.3
2017-09-26T08:00:13.495Z,2.3
2017-09-26T08:01:15.929Z,2.4
2017-09-26T08:02:18.336Z,2.4
2017-09-26T08:03:20.771Z,2.3
2017-09-26T08:04:23.194Z,2.3
2017-09-26T08:05:25.566Z,2.3
2017-09-26T08:06:27.960Z,2.3
2017-09-26T08:07:30.354Z,2.3
2017-09-26T08:08:32.753Z,2.4
2017-09-26T08:09:35.144Z,2.4
2017-09-26T08:10:37.541Z,2.3
2017-09-26T08:11:39.943Z,2.3
2017-09-26T08:12:42.679Z,2.3
2017-09-26T08:13:45.071Z,2.3
2017-09-26T08:14:47.467Z,2.3
2017-09-26T08:15:49.861Z,2.3
2017-09-26T08:16:52.256Z,2.4
2017-09-26T08:17:54.656Z,2.4
2017-09-26T08:18:57.048Z,2.4
2017-09-26T08:19:59.447Z,2.3
2017-09-26T08:21:02.190Z,2.3
2017-09-26T08:22:04.581Z,2.3
2017-09-26T08:23:06.978Z,2.3
2017-09-26T08:24:09.375Z,2.3
2017-09-26T08:25:11.769Z,2.4
2017-09-26T08:26:14.168Z,2.4
2017-09-26T08:27:16.911Z,2.3
2017-09-26T08:28:19.295Z,2.3
2017-09-26T08:29:22.037Z,2.3
2017-09-26T08:30:24.428Z,2.4
2017-09-26T08:31:26.822Z,2.2
2017-09-26T08:32:29.228Z,2.4
2017-09-26T08:33:31.628Z,2.4
2017-09-26T08:34:34.051Z,2.4
2017-09-26T08:35:36.457Z,2.4
2017-09-26T08:36:38.856Z,2.4
2017-09-26T08:37:41.264Z,2.4
2017-09-26T08:38:43.694Z,2.4
2017-09-26T08:39:46.432Z,2.4
2017-09-26T08:40:49.170Z,2.4
2017-09-26T08:41:51.597Z,2.4
2017-09-26T08:42:54.012Z,2.4
2017-09-26T08:43:56.423Z,2.3
2017-09-26T08:44:58.831Z,2.4
2017-09-26T08:46:01.228Z,2.3
2017-09-26T08:47:03.636Z,2.4
2017-09-26T08:48:06.036Z,2.3
2017-09-26T08:49:08.526Z,2.3
2017-09-26T08:50:11.268Z,2.4
2017-09-26T08:51:13.700Z,2.3
2017-09-26T08:52:16.131Z,2.4
2017-09-26T08:53:18.897Z,2.3
2017-09-26T08:54:21.300Z,2.4
2017-09-26T08:55:23.709Z,2.4
2017-09-26T08:56:26.134Z,2.3
2017-09-26T08:57:28.565Z,2.3
2017-09-26T08:58:30.989Z,2.3
2017-09-26T08:59:33.400Z,2.3
2017-09-26T09:00:36.215Z,2.4
2017-09-26T09:01:38.624Z,2.3
2017-09-26T09:02:41.019Z,2.4
2017-09-26T09:03:43.423Z,2.4
2017-09-26T09:04:45.832Z,2.4
2017-09-26T09:05:48.228Z,2.4
2017-09-26T09:06:50.634Z,2.4
2017-09-26T09:07:53.030Z,2.4
2017-09-26T09:08:55.438Z,2.4
2017-09-26T09:09:57.843Z,2.4
2017-09-26T09:11:00.237Z,2.4
2017-09-26T09:12:02.654Z,2.2
2017-09-26T09:13:05.045Z,2.3
2017-09-26T09:14:07.442Z,2.3
2017-09-26T09:15:09.867Z,2.4
2017-09-26T09:16:12.280Z,2.4
2017-09-26T09:17:14.723Z,2.4
2017-09-26T09:18:17.480Z,2.4
2017-09-26T09:19:19.880Z,2.4
2017-09-26T09:20:22.326Z,2.4
2017-09-26T09:21:24.807Z,2.3
2017-09-26T09:22:27.207Z,2.4
2017-09-26T09:23:29.609Z,2.4
2017-09-26T09:24:32.019Z,2.5
2017-09-26T09:25:34.412Z,2.5
2017-09-26T09:26:36.808Z,2.5
2017-09-26T09:27:39.216Z,2.6
2017-09-26T09:28:41.612Z,2.5
2017-09-26T09:29:44.012Z,2.6
2017-09-26T09:30:46.748Z,2.6
2017-09-26T09:31:49.158Z,2.6
2017-09-26T09:32:51.544Z,2.6
2017-09-26T09:33:53.960Z,2.6
2017-09-26T09:34:56.721Z,2.6
2017-09-26T09:35:59.117Z,2.6
2017-09-26T09:37:01.520Z,2.6
2017-09-26T09:38:03.919Z,2.5
2017-09-26T09:39:06.313Z,2.6
2017-09-26T09:40:08.716Z,2.6
2017-09-26T09:41:11.113Z,2.6
2017-09-26T09:42:13.505Z,2.6
2017-09-26T09:43:15.911Z,2.5
2017-09-26T09:44:18.313Z,2.6
2017-09-26T09:45:20.721Z,2.6
2017-09-26T09:46:23.126Z,2.5
2017-09-26T09:47:25.523Z,2.6
2017-09-26T09:48:27.926Z,2.6
2017-09-26T09:49:30.326Z,2.6
2017-09-26T09:50:32.720Z,2.6
2017-09-26T09:51:35.123Z,2.6
2017-09-26T09:52:37.518Z,2.6
2017-09-26T09:53:39.913Z,2.6
2017-09-26T09:54:42.322Z,2.6
2017-09-26T09:55:45.060Z,2.6
2017-09-26T09:56:47.462Z,2.6
2017-09-26T09:57:50.200Z,2.6
2017-09-26T09:58:52.941Z,2.6
2017-09-26T09:59:55.357Z,2.6
2017-09-26T10:00:57.752Z,2.6
2017-09-26T10:02:00.156Z,2.6
2017-09-26T10:03:02.568Z,2.6
2017-09-26T10:04:04.974Z,2.7
2017-09-26T10:05:07.373Z,2.7
2017-09-26T10:06:09.769Z,2.6
2017-09-26T10:07:12.162Z,2.7
2017-09-26T10:08:14.563Z,2.7
2017-09-26T10:09:16.965Z,2.7
2017-09-26T10:10:19.361Z,2.6
2017-09-26T10:11:21.768Z,2.6
2017-09-26T10:12:24.171Z,2.7
2017-09-26T10:13:26.576Z,2.7
2017-09-26T10:14:28.979Z,2.8
2017-09-26T10:15:31.372Z,2.8
2017-09-26T10:16:33.778Z,2.7
2017-09-26T10:17:36.181Z,2.7
2017-09-26T10:18:38.588Z,2.7
2017-09-26T10:19:40.987Z,2.7
2017-09-26T10:20:43.724Z,2.8
2017-09-26T10:21:46.126Z,2.7
2017-09-26T10:22:48.869Z,2.7
2017-09-26T10:23:51.269Z,2.7
2017-09-26T10:24:53.659Z,2.7
2017-09-26T10:25:56.063Z,2.7
2017-09-26T10:26:58.462Z,2.8
2017-09-26T10:28:00.862Z,2.8
2017-09-26T10:29:03.265Z,2.7
2017-09-26T10:30:06.002Z,2.8
2017-09-26T10:31:08.408Z,2.8
2017-09-26T10:32:10.808Z,2.9
2017-09-26T10:33:13.545Z,2.8
2017-09-26T10:34:15.956Z,2.8
2017-09-26T10:35:18.354Z,2.8
2017-09-26T10:36:20.760Z,2.8
2017-09-26T10:37:23.155Z,2.9
2017-09-26T10:38:25.557Z,2.8
2017-09-26T10:39:27.965Z,3
2017-09-26T10:40:30.708Z,2.9
2017-09-26T10:41:33.106Z,2.8
2017-09-26T10:42:35.510Z,2.9
2017-09-26T10:43:37.908Z,2.9
2017-09-26T10:44:40.307Z,2.9
2017-09-26T10:45:42.715Z,3
2017-09-26T10:46:45.113Z,3
2017-09-26T10:47:47.516Z,2.9
2017-09-26T10:48:50.270Z,3
2017-09-26T10:49:52.671Z,3
2017-09-26T10:50:55.094Z,2.9
2017-09-26T10:51:57.489Z,3.1
2017-09-26T10:52:59.889Z,3
2017-09-26T10:54:02.292Z,2.9
2017-09-26T10:55:04.708Z,2.9
2017-09-26T10:56:07.101Z,3
2017-09-26T10:57:09.842Z,3
2017-09-26T10:58:12.253Z,3
2017-09-26T10:59:14.654Z,3
2017-09-26T11:00:17.045Z,2.9
2017-09-26T11:01:19.452Z,3
2017-09-26T11:02:21.857Z,3
2017-09-26T11:03:24.259Z,3
2017-09-26T11:04:26.671Z,3
2017-09-26T11:05:29.070Z,3
2017-09-26T11:06:31.473Z,3
2017-09-26T11:07:33.890Z,3
2017-09-26T11:08:36.287Z,3
2017-09-26T11:09:39.031Z,2.9
2017-09-26T11:10:41.438Z,3
2017-09-26T11:11:43.829Z,2.9
2017-09-26T11:12:46.236Z,3
2017-09-26T11:13:48.990Z,3
2017-09-26T11:14:51.395Z,3
2017-09-26T11:15:53.801Z,3
2017-09-26T11:16:56.204Z,3
2017-09-26T11:17:58.608Z,2.9
2017-09-26T11:19:01.014Z,2.9
2017-09-26T11:20:03.756Z,3
2017-09-26T11:21:06.494Z,3
2017-09-26T11:22:08.902Z,2.9
2017-09-26T11:23:11.302Z,2.9
2017-09-26T11:24:13.702Z,2.9
2017-09-26T11:25:16.106Z,2.9
2017-09-26T11:26:18.516Z,2.9
2017-09-26T11:27:21.268Z,2.9
2017-09-26T11:28:23.677Z,3
2017-09-26T11:29:26.418Z,2.9
2017-09-26T11:30:28.824Z,3
2017-09-26T11:31:31.218Z,2.9
2017-09-26T11:32:33.621Z,2.9
2017-09-26T11:33:36.032Z,2.9
2017-09-26T11:34:38.432Z,2.8
2017-09-26T11:35:40.837Z,2.9
2017-09-26T11:36:43.238Z,2.9
2017-09-26T11:37:45.643Z,2.9
2017-09-26T11:38:48.048Z,2.9
2017-09-26T11:39:50.447Z,2.9
2017-09-26T11:40:52.850Z,2.9
2017-09-26T11:41:55.251Z,3
2017-09-26T11:42:57.653Z,3
2017-09-26T11:44:00.059Z,3
2017-09-26T11:45:02.467Z,2.9
2017-09-26T11:46:04.866Z,2.9
2017-09-26T11:47:07.272Z,3
2017-09-26T11:48:09.678Z,3
2017-09-26T11:49:12.081Z,3
2017-09-26T11:50:14.490Z,3
2017-09-26T11:51:16.883Z,3.1
2017-09-26T11:52:19.286Z,3
2017-09-26T11:53:21.699Z,3
2017-09-26T11:54:24.442Z,3.1
2017-09-26T11:55:26.847Z,3.2
2017-09-26T11:56:29.254Z,3.1
2017-09-26T11:57:31.651Z,3.2
2017-09-26T11:58:34.055Z,3.2
2017-09-26T11:59:36.456Z,3.2
2017-09-26T12:00:38.861Z,3.2
2017-09-26T12:01:41.264Z,3.2
2017-09-26T12:02:43.678Z,3.2
2017-09-26T12:03:46.079Z,3.2
2017-09-26T12:04:48.488Z,3.2
2017-09-26T12:05:50.892Z,3.2
2017-09-26T12:06:53.293Z,3.1
2017-09-26T12:07:55.697Z,3.3
2017-09-26T12:08:58.099Z,3.2
2017-09-26T12:10:00.500Z,3.3
2017-09-26T12:11:02.882Z,3.3
2017-09-26T12:12:05.271Z,3.2
2017-09-26T12:13:07.664Z,3.2
2017-09-26T12:14:10.045Z,3.3
2017-09-26T12:15:12.433Z,3.3
2017-09-26T12:16:14.825Z,3.3
2017-09-26T12:17:17.208Z,3.3
2017-09-26T12:18:19.597Z,3.1
2017-09-26T12:19:22.327Z,3.2
2017-09-26T12:20:24.710Z,3.2
2017-09-26T12:21:27.102Z,3.2
2017-09-26T12:22:29.490Z,3.3
2017-09-26T12:23:32.206Z,3.2
2017-09-26T12:24:34.597Z,3.2
2017-09-26T12:26:21.887Z,3.1
2017-09-26T12:27:24.336Z,3.1
2017-09-26T12:28:26.774Z,3.1
2017-09-26T12:29:29.227Z,3.2
2017-09-26T12:30:31.674Z,3.1
2017-09-26T12:31:34.104Z,3.1
2017-09-26T12:32:36.549Z,3.1
2017-09-26T12:33:39.000Z,3.2
2017-09-26T12:34:41.468Z,3.1
2017-09-26T12:35:44.270Z,3.1
2017-09-26T12:36:46.718Z,3.1
2017-09-26T12:37:49.162Z,3.2
2017-09-26T12:38:51.623Z,3.1
2017-09-26T12:39:54.084Z,3.2
2017-09-26T12:40:56.547Z,3.1
2017-09-26T12:41:59.351Z,3.2
2017-09-26T12:43:01.812Z,3.2
2017-09-26T12:44:04.279Z,3.1
2017-09-26T12:45:06.734Z,3.1
2017-09-26T12:46:09.192Z,3.1
2017-09-26T12:47:11.659Z,3.1
2017-09-26T12:48:14.116Z,3.3
2017-09-26T12:49:16.578Z,3.2
2017-09-26T12:50:19.037Z,3.3
2017-09-26T12:51:21.502Z,3.3
2017-09-26T12:52:23.987Z,3.3
2017-09-26T12:53:26.448Z,3.4
2017-09-26T12:54:29.250Z,3.4
2017-09-26T12:55:31.717Z,3.4
2017-09-26T12:56:34.183Z,3.5
2017-09-26T12:57:37.388Z,3.4
2017-09-26T12:58:39.825Z,3.4
2017-09-26T12:59:42.283Z,3.4
2017-09-26T13:00:44.745Z,3.4
2017-09-26T13:01:47.206Z,3.5
2017-09-26T13:02:49.664Z,3.5
2017-09-26T13:03:52.124Z,3.4
2017-09-26T13:04:54.587Z,3.5
2017-09-26T13:05:57.022Z,3.6
2017-09-26T13:06:59.470Z,3.5
2017-09-26T13:08:02.252Z,3.6
2017-09-26T13:09:04.703Z,3.6
2017-09-26T13:10:07.193Z,3.7
2017-09-26T13:11:09.652Z,3.6
2017-09-26T13:12:12.089Z,3.6
2017-09-26T13:13:14.539Z,3.5
2017-09-26T13:14:16.981Z,3.6
2017-09-26T13:15:19.431Z,3.7
2017-09-26T13:16:21.878Z,3.7
2017-09-26T13:17:24.323Z,3.6
2017-09-26T13:18:27.103Z,3.7
2017-09-26T13:19:29.893Z,3.7
2017-09-26T13:20:33.040Z,3.7
2017-09-26T13:21:35.483Z,3.7
2017-09-26T13:22:37.922Z,3.6
2017-09-26T13:23:40.371Z,3.6
2017-09-26T13:24:42.819Z,3.6
2017-09-26T13:25:45.273Z,3.6
2017-09-26T13:26:47.715Z,3.6
2017-09-26T13:27:50.171Z,3.7
2017-09-26T13:28:52.619Z,3.7
2017-09-26T13:29:55.069Z,3.6
2017-09-26T13:30:57.523Z,3.7
2017-09-26T13:31:59.977Z,3.6
2017-09-26T13:33:02.418Z,3.6
2017-09-26T13:34:04.870Z,3.6
2017-09-26T13:35:07.306Z,3.7
2017-09-26T13:36:09.763Z,3.6
2017-09-26T13:37:12.547Z,3.7
2017-09-26T13:38:14.986Z,3.6
2017-09-26T13:39:17.444Z,3.7
2017-09-26T13:40:20.233Z,3.7
2017-09-26T13:41:22.678Z,3.7
2017-09-26T13:42:25.118Z,3.8
2017-09-26T13:43:27.578Z,3.6
2017-09-26T13:44:30.021Z,3.7
2017-09-26T13:45:32.475Z,3.6
2017-09-26T13:46:35.608Z,3.6
2017-09-26T13:47:38.041Z,3.6
2017-09-26T13:48:40.500Z,3.6
2017-09-26T13:49:42.946Z,3.6
2017-09-26T13:50:45.392Z,3.6
2017-09-26T13:51:47.838Z,3.6
2017-09-26T13:52:50.626Z,3.6
2017-09-26T13:53:53.077Z,3.6
2017-09-26T13:54:55.528Z,3.7
2017-09-26T13:55:57.971Z,3.7
2017-09-26T13:57:00.768Z,3.7
2017-09-26T13:58:03.217Z,3.6
2017-09-26T13:59:05.662Z,3.7
2017-09-26T14:00:08.102Z,3.7
2017-09-26T14:01:10.552Z,3.8
2017-09-26T14:02:13.348Z,3.7
2017-09-26T14:03:15.795Z,3.7
2017-09-26T14:04:18.248Z,3.8
2017-09-26T14:05:20.695Z,3.8
2017-09-26T14:06:23.497Z,3.8
2017-09-26T14:07:25.960Z,3.7
2017-09-26T14:08:28.409Z,4.2
2017-09-26T14:09:31.194Z,3.7
2017-09-26T14:10:33.667Z,3.8
2017-09-26T14:11:36.111Z,3.9
2017-09-26T14:12:38.566Z,3.8
2017-09-26T14:13:41.018Z,3.8
2017-09-26T14:14:43.469Z,3.8
2017-09-26T14:15:45.915Z,3.8
2017-09-26T14:16:48.374Z,3.8
2017-09-26T14:17:50.817Z,3.8
2017-09-26T14:18:53.272Z,3.8
2017-09-26T14:19:55.719Z,3.8
2017-09-26T14:20:58.155Z,3.8
2017-09-26T14:22:00.609Z,3.8
2017-09-26T14:23:03.054Z,3.5
2017-09-26T14:24:05.503Z,3.7
2017-09-26T14:25:07.946Z,3.7
2017-09-26T14:26:10.406Z,3.7
2017-09-26T14:27:13.189Z,3.8